Time;durP1;ratioP1;P1;durP2;ratioP2;P2;SDS_P1;SDS_P2;PMS_P1;PMS_P2;Temp;Humidity;BMP_temperature;BMP_pressure;BME280_temperature;BME280_humidity;BME280_pressure;Samples;Min_cycle;Max_cycle;Signal;HPM_P1;HPM_P2
2022/04/11 00:01:02;;;;;;;;;1.25;0.00;;;;;6.74;62.41;-18655.03;4971681;28;10841;-69
2022/04/11 00:03:29;;;;;;;;;1.00;1.00;;;;;6.76;61.99;-18655.50;4986473;28;10778;-71
2022/04/11 00:05:56;;;;;;;;;0.50;0.50;;;;;6.71;62.30;-18654.13;4971538;28;11623;-70
2022/04/11 00:08:23;;;;;;;;;3.00;1.00;;;;;6.74;61.96;-18654.91;4970568;28;10502;-71
2022/04/11 00:10:50;;;;;;;;;0.75;0.75;;;;;6.75;61.83;-18655.19;4952324;29;10664;-70
2022/04/11 00:13:16;;;;;;;;;0.75;0.75;;;;;6.75;62.51;-18655.19;4952105;28;10813;-71
2022/04/11 00:15:43;;;;;;;;;2.00;0.00;;;;;6.75;62.27;-18655.19;4967158;28;10637;-71
2022/04/11 00:18:10;;;;;;;;;0.75;0.75;;;;;6.75;62.74;-18655.19;4970433;28;11368;-71
2022/04/11 00:20:36;;;;;;;;;1.00;1.00;;;;;6.71;62.44;-18653.97;4973430;28;10746;-71
2022/04/11 00:23:04;;;;;;;;;1.00;0.00;;;;;6.70;63.28;-18653.69;4975441;28;10870;-71
2022/04/11 00:25:31;;;;;;;;;0.00;0.00;;;;;6.63;62.46;-18651.56;4975575;28;10628;-71
2022/04/11 00:27:58;;;;;;;;;1.00;0.00;;;;;6.60;62.73;-18650.81;4974415;28;10447;-69
2022/04/11 00:30:26;;;;;;;;;1.50;0.25;;;;;6.55;62.77;-18649.28;4972717;28;10672;-70
2022/04/11 00:32:52;;;;;;;;;3.00;1.00;;;;;6.52;62.89;-18648.38;4975372;28;10715;-70
2022/04/11 00:35:19;;;;;;;;;0.75;0.50;;;;;6.50;63.67;-18647.63;4975372;28;10527;-71
2022/04/11 00:37:45;;;;;;;;;1.00;0.50;;;;;6.53;63.47;-18648.69;4975392;28;10700;-71
2022/04/11 00:40:12;;;;;;;;;1.00;1.00;;;;;6.53;64.09;-18648.53;4990336;28;10676;-71
2022/04/11 00:42:38;;;;;;;;;1.00;1.00;;;;;6.47;63.90;-18646.88;4973599;28;10693;-71
2022/04/11 00:45:07;;;;;;;;;0.25;0.25;;;;;6.52;63.63;-18648.38;4956095;28;10784;-72
2022/04/11 00:47:34;;;;;;;;;1.25;1.25;;;;;6.54;63.38;-18648.84;4956645;28;10864;-71
2022/04/11 00:50:07;;;;;;;;;1.00;1.00;;;;;6.50;63.77;-18647.63;4956470;28;10693;-71
2022/04/11 00:52:44;;;;;;;;;1.50;1.50;;;;;6.44;64.07;-18645.97;4957078;28;10916;-70
2022/04/11 00:55:13;;;;;;;;;1.00;1.00;;;;;6.36;63.64;-18643.69;4965708;28;10749;-70
2022/04/11 00:57:39;;;;;;;;;0.00;0.00;;;;;6.35;64.00;-18643.41;4990723;28;10684;-69
2022/04/11 01:00:08;;;;;;;;;1.75;0.50;;;;;6.44;63.95;-18646.13;4990981;28;10787;-71
2022/04/11 01:02:35;;;;;;;;;1.00;1.00;;;;;6.37;64.08;-18644.00;4978216;28;10765;-71
2022/04/11 01:05:12;;;;;;;;;1.00;1.00;;;;;6.38;64.64;-18644.16;4994326;28;10846;-71
2022/04/11 01:07:40;;;;;;;;;0.00;0.00;;;;;6.26;64.18;-18640.53;4978435;28;10707;-72
2022/04/11 01:10:08;;;;;;;;;0.00;0.00;;;;;6.26;64.59;-18640.69;4979517;28;10929;-71
2022/04/11 01:12:35;;;;;;;;;1.75;1.75;;;;;6.37;64.94;-18644.00;4991789;28;10847;-71
2022/04/11 01:15:02;;;;;;;;;3.00;2.00;;;;;6.30;64.74;-18641.88;4972882;28;10965;-69
2022/04/11 01:17:37;;;;;;;;;0.00;0.00;;;;;6.20;64.73;-18638.72;4970395;28;11497;-71
2022/04/11 01:20:10;;;;;;;;;0.00;0.00;;;;;6.18;65.72;-18638.25;4992482;28;10845;-70
2022/04/11 01:22:38;;;;;;;;;1.00;1.00;;;;;6.17;66.40;-18638.09;4991184;28;10692;-70
2022/04/11 01:25:06;;;;;;;;;5.75;1.00;;;;;6.21;65.80;-18639.16;4993293;28;10971;-70
2022/04/11 01:27:33;;;;;;;;;1.00;1.00;;;;;6.17;66.59;-18637.97;4975541;28;10942;-71
2022/04/11 01:29:59;;;;;;;;;1.00;1.00;;;;;6.09;66.83;-18635.53;4991420;28;10903;-71
2022/04/11 01:32:28;;;;;;;;;2.75;0.75;;;;;6.02;66.55;-18633.56;4973687;28;10863;-70
2022/04/11 01:34:56;;;;;;;;;4.25;2.50;;;;;6.02;66.25;-18633.56;4975851;28;10829;-71
2022/04/11 01:37:23;;;;;;;;;1.00;1.00;;;;;6.07;67.94;-18634.94;4976128;28;10720;-71
2022/04/11 01:39:50;;;;;;;;;1.25;1.25;;;;;6.11;67.23;-18636.16;4987961;28;10833;-70
2022/04/11 01:42:16;;;;;;;;;1.50;0.50;;;;;6.05;67.45;-18634.34;4972853;28;10951;-69
2022/04/11 01:44:43;;;;;;;;;5.00;1.00;;;;;5.96;67.43;-18631.75;4972889;28;10992;-70
2022/04/11 01:47:10;;;;;;;;;2.00;2.00;;;;;5.94;67.50;-18631.16;4988480;28;10909;-70
2022/04/11 01:49:37;;;;;;;;;4.00;1.50;;;;;5.93;67.00;-18630.69;4972676;28;10976;-71
2022/04/11 01:52:05;;;;;;;;;2.00;1.00;;;;;5.93;68.71;-18630.69;4988815;28;12284;-71
2022/04/11 01:54:31;;;;;;;;;2.50;2.50;;;;;5.96;68.65;-18631.63;4971769;28;11127;-70
2022/04/11 01:56:58;;;;;;;;;2.00;1.25;;;;;5.94;68.71;-18631.00;4972425;28;11075;-72
2022/04/11 01:59:24;;;;;;;;;1.50;1.50;;;;;5.90;68.99;-18629.78;4972235;28;11062;-70
2022/04/11 02:01:51;;;;;;;;;1.00;1.00;;;;;5.90;68.51;-18629.78;4972718;28;10895;-70
2022/04/11 02:04:18;;;;;;;;;2.00;1.00;;;;;5.92;68.36;-18630.53;4973508;28;10941;-71
2022/04/11 02:06:44;;;;;;;;;3.00;1.25;;;;;5.92;68.66;-18630.53;4971775;28;11067;-72
2022/04/11 02:09:11;;;;;;;;;1.00;1.00;;;;;5.86;68.67;-18628.88;4987470;28;10833;-69
2022/04/11 02:11:37;;;;;;;;;2.00;2.00;;;;;5.86;69.01;-18628.72;4971408;28;10977;-70
2022/04/11 02:14:06;;;;;;;;;4.00;1.25;;;;;5.88;68.75;-18629.47;4988128;28;11086;-69
2022/04/11 02:16:33;;;;;;;;;2.00;1.25;;;;;5.76;68.53;-18625.84;4973197;28;11011;-71
2022/04/11 02:19:00;;;;;;;;;0.00;0.00;;;;;5.76;69.02;-18625.72;4988303;28;10891;-70
2022/04/11 02:21:26;;;;;;;;;4.25;1.75;;;;;5.76;68.66;-18625.84;4988291;28;11001;-70
2022/04/11 02:23:52;;;;;;;;;1.00;1.00;;;;;5.76;68.68;-18625.72;4973082;28;11074;-70
2022/04/11 02:26:19;;;;;;;;;1.75;1.75;;;;;5.79;69.09;-18626.63;4971835;28;10986;-71
2022/04/11 02:28:46;;;;;;;;;4.00;3.00;;;;;5.78;69.17;-18626.31;4971670;28;11952;-70
2022/04/11 02:31:13;;;;;;;;;5.00;2.00;;;;;5.79;69.46;-18626.75;4956128;28;11194;-70
2022/04/11 02:33:39;;;;;;;;;1.25;1.25;;;;;5.71;69.58;-18624.34;4968499;28;11005;-69
2022/04/11 02:36:06;;;;;;;;;3.00;3.00;;;;;5.67;69.30;-18623.13;4969977;28;10981;-70
2022/04/11 02:38:33;;;;;;;;;3.00;3.00;;;;;5.61;68.73;-18621.31;4971603;28;11069;-70
2022/04/11 02:40:59;;;;;;;;;6.00;5.00;;;;;5.62;69.46;-18621.47;4968662;28;11527;-71
2022/04/11 02:43:37;;;;;;;;;5.00;5.00;;;;;5.61;69.98;-18621.16;4951979;28;11403;-70
2022/04/11 02:46:07;;;;;;;;;4.00;4.00;;;;;5.61;70.40;-18621.16;4952334;28;11471;-70
2022/04/11 02:48:37;;;;;;;;;3.00;3.00;;;;;5.55;70.13;-18619.66;4955905;28;11478;-69
2022/04/11 02:51:09;;;;;;;;;5.00;5.00;;;;;5.53;70.27;-18619.06;4988087;28;11594;-72
2022/04/11 02:53:44;;;;;;;;;3.75;3.75;;;;;5.53;71.14;-18618.91;4984021;28;11169;-71
2022/04/11 02:56:10;;;;;;;;;1.00;1.00;;;;;5.49;71.25;-18617.84;4987696;28;11288;-70
2022/04/11 02:58:37;;;;;;;;;4.25;4.25;;;;;5.49;71.27;-18617.69;4987535;28;11143;-70
2022/04/11 03:01:04;;;;;;;;;6.00;5.00;;;;;5.48;71.35;-18617.38;4972599;28;11233;-70
2022/04/11 03:03:33;;;;;;;;;4.25;3.00;;;;;5.49;71.30;-18617.84;4987807;28;11507;-70
2022/04/11 03:06:00;;;;;;;;;5.00;5.00;;;;;5.47;71.11;-18617.25;4987556;28;11273;-70
2022/04/11 03:08:28;;;;;;;;;8.75;6.75;;;;;5.50;70.48;-18618.16;4970681;28;11499;-70
2022/04/11 03:10:56;;;;;;;;;6.25;5.75;;;;;5.47;69.93;-18617.25;4971400;28;11505;-71
2022/04/11 03:13:24;;;;;;;;;7.00;6.00;;;;;5.47;70.26;-18617.25;4970965;28;11456;-71
2022/04/11 03:15:51;;;;;;;;;7.00;6.00;;;;;5.51;71.02;-18618.28;4971669;28;11469;-70
2022/04/11 03:18:19;;;;;;;;;6.00;6.00;;;;;5.49;70.69;-18617.69;4971183;28;11565;-70
2022/04/11 03:20:47;;;;;;;;;4.75;4.75;;;;;5.47;71.01;-18617.25;4972406;28;11482;-70
2022/04/11 03:23:16;;;;;;;;;5.25;4.00;;;;;5.50;71.50;-18618.16;4971164;28;11595;-71
2022/04/11 03:25:45;;;;;;;;;8.00;6.50;;;;;5.53;71.45;-18618.91;4986754;28;11261;-70
2022/04/11 03:28:17;;;;;;;;;5.50;5.50;;;;;5.49;70.48;-18617.69;4985130;28;11468;-70
2022/04/11 03:30:44;;;;;;;;;5.50;5.50;;;;;5.52;70.46;-18618.59;4970769;28;11213;-70
2022/04/11 03:33:11;;;;;;;;;8.00;8.00;;;;;5.55;70.30;-18619.66;4970690;28;11551;-70
2022/04/11 03:35:38;;;;;;;;;6.25;6.25;;;;;5.54;70.07;-18619.19;4970895;28;11506;-70
2022/04/11 03:38:04;;;;;;;;;7.50;7.50;;;;;5.55;70.71;-18619.50;4969825;28;11550;-71
2022/04/11 03:40:31;;;;;;;;;5.00;5.00;;;;;5.57;70.66;-18620.25;4970175;28;11266;-72
2022/04/11 03:43:04;;;;;;;;;4.75;4.75;;;;;5.64;70.74;-18622.22;4986639;28;12721;-70
2022/04/11 03:45:31;;;;;;;;;8.75;8.00;;;;;5.65;69.80;-18622.38;4970614;28;11239;-73
2022/04/11 03:47:58;;;;;;;;;7.00;6.75;;;;;5.69;69.49;-18623.59;4986834;28;11575;-69
2022/04/11 03:50:28;;;;;;;;;9.25;8.50;;;;;5.72;69.18;-18624.66;4986506;28;11483;-70
2022/04/11 03:52:55;;;;;;;;;4.50;4.50;;;;;5.66;68.63;-18622.84;4979404;28;11501;-69
2022/04/11 03:55:22;;;;;;;;;6.00;6.00;;;;;5.64;68.92;-18622.06;4951372;28;11509;-69
2022/04/11 03:57:51;;;;;;;;;6.00;6.00;;;;;5.63;69.26;-18621.78;4951107;28;11937;-71
2022/04/11 04:00:18;;;;;;;;;7.25;5.25;;;;;5.69;69.04;-18623.59;4950994;28;11279;-69
2022/04/11 04:03:12;;;;;;;;;8.50;6.00;;;;;5.76;69.03;-18625.84;4951107;28;11474;-71
2022/04/11 04:05:46;;;;;;;;;8.50;7.75;;;;;5.80;68.83;-18627.06;4952127;28;11566;-71
2022/04/11 04:08:17;;;;;;;;;8.50;8.50;;;;;5.77;69.20;-18626.16;4951648;28;11490;-71
2022/04/11 04:10:54;;;;;;;;;7.50;7.50;;;;;5.87;68.77;-18629.03;4970152;28;11466;-69
2022/04/11 04:13:21;;;;;;;;;8.75;7.25;;;;;5.90;68.03;-18629.78;4986318;28;11490;-70
2022/04/11 04:15:49;;;;;;;;;8.25;6.00;;;;;5.86;67.90;-18628.72;4970070;28;11484;-70
2022/04/11 04:18:16;;;;;;;;;6.00;6.00;;;;;5.82;68.02;-18627.53;4971259;28;11646;-69
2022/04/11 04:20:42;;;;;;;;;6.75;6.75;;;;;5.82;68.39;-18627.66;4955094;29;11225;-70
2022/04/11 04:23:11;;;;;;;;;10.00;9.00;;;;;5.85;68.48;-18628.44;4938662;29;11095;-69
2022/04/11 04:25:37;;;;;;;;;8.50;7.00;;;;;5.83;68.48;-18627.97;4968927;28;11542;-70
2022/04/11 04:28:04;;;;;;;;;8.75;7.50;;;;;5.79;68.14;-18626.63;4989971;28;12008;-70
2022/04/11 04:30:34;;;;;;;;;7.50;6.50;;;;;5.78;68.15;-18626.47;4974145;28;11241;-72
2022/04/11 04:33:00;;;;;;;;;10.00;7.00;;;;;5.83;67.92;-18627.81;4974126;28;11479;-70
2022/04/11 04:35:27;;;;;;;;;11.25;6.50;;;;;5.85;68.43;-18628.44;4975013;28;11240;-71
2022/04/11 04:37:56;;;;;;;;;11.00;8.50;;;;;5.87;68.04;-18629.19;4973007;28;11183;-70
2022/04/11 04:40:25;;;;;;;;;16.00;9.00;;;;;5.92;67.86;-18630.41;4970975;28;11491;-70
2022/04/11 04:42:53;;;;;;;;;10.00;7.50;;;;;5.96;67.34;-18631.75;4980896;28;11499;-70
2022/04/11 04:45:20;;;;;;;;;15.00;14.00;;;;;5.91;67.58;-18630.09;4953749;29;11260;-70
2022/04/11 04:48:06;;;;;;;;;5.50;5.50;;;;;5.97;67.77;-18632.06;4953427;29;11281;-70
2022/04/11 04:50:35;;;;;;;;;8.75;8.75;;;;;5.97;67.62;-18631.91;4955284;28;11578;-70
2022/04/11 04:53:04;;;;;;;;;11.50;9.25;;;;;5.96;67.61;-18631.63;4973083;28;11461;-70
2022/04/11 04:55:30;;;;;;;;;7.00;6.00;;;;;5.92;67.92;-18630.53;4972140;28;11651;-70
2022/04/11 04:57:56;;;;;;;;;9.25;6.00;;;;;5.91;67.80;-18630.09;4970868;28;11553;-71
2022/04/11 05:00:24;;;;;;;;;11.25;9.50;;;;;5.86;67.93;-18628.88;4971056;28;11127;-72
2022/04/11 05:02:50;;;;;;;;;11.50;11.00;;;;;5.83;67.86;-18627.81;4970756;28;11507;-70
2022/04/11 05:05:21;;;;;;;;;7.75;7.75;;;;;5.81;67.95;-18627.22;4988261;28;11509;-70
2022/04/11 05:07:50;;;;;;;;;10.75;9.25;;;;;5.81;68.11;-18627.38;4990087;28;11460;-70
2022/04/11 05:10:22;;;;;;;;;10.25;8.25;;;;;5.80;67.81;-18627.06;4954997;28;11503;-70
2022/04/11 05:12:50;;;;;;;;;14.25;10.75;;;;;5.83;67.84;-18627.97;4939395;28;11481;-70
2022/04/11 05:15:20;;;;;;;;;9.00;9.00;;;;;5.84;68.20;-18628.28;4954951;28;11540;-69
2022/04/11 05:17:51;;;;;;;;;13.25;11.00;;;;;5.85;68.25;-18628.56;4972259;28;11496;-69
2022/04/11 05:20:20;;;;;;;;;10.00;10.00;;;;;5.88;68.10;-18629.47;4990483;28;11647;-70
2022/04/11 05:22:46;;;;;;;;;7.75;7.75;;;;;5.92;67.91;-18630.53;4968904;28;12274;-69
2022/04/11 05:25:14;;;;;;;;;10.75;10.00;;;;;5.95;68.58;-18631.47;4955226;28;11159;-69
2022/04/11 05:27:41;;;;;;;;;12.25;11.25;;;;;5.93;67.98;-18630.69;4971038;28;11558;-70
2022/04/11 05:30:09;;;;;;;;;9.00;8.50;;;;;5.98;67.71;-18632.22;4990414;28;11515;-70
2022/04/11 05:32:37;;;;;;;;;10.75;10.75;;;;;5.99;67.51;-18632.53;4990090;28;11253;-69
2022/04/11 05:35:04;;;;;;;;;11.00;10.00;;;;;5.94;67.07;-18631.00;4990274;28;12240;-70
2022/04/11 05:37:31;;;;;;;;;11.00;11.00;;;;;6.02;66.78;-18633.44;4960994;28;11304;-69
2022/04/11 05:39:58;;;;;;;;;8.75;7.50;;;;;6.12;67.21;-18636.59;4954325;28;11611;-71
2022/04/11 05:42:26;;;;;;;;;10.00;10.00;;;;;6.12;66.63;-18636.59;4938812;28;12231;-72
2022/04/11 05:44:53;;;;;;;;;11.75;10.50;;;;;6.15;66.10;-18637.50;4960164;28;11467;-71
2022/04/11 05:47:19;;;;;;;;;8.50;8.50;;;;;6.45;65.09;-18646.44;4973707;28;11561;-70
2022/04/11 05:49:52;;;;;;;;;15.25;13.75;;;;;6.58;64.04;-18650.06;4989445;28;11505;-71
2022/04/11 05:52:21;;;;;;;;;15.25;11.00;;;;;6.58;64.25;-18650.19;4954361;28;11552;-72
2022/04/11 05:54:49;;;;;;;;;10.00;10.00;;;;;6.59;63.91;-18650.34;4953347;28;11283;-71
2022/04/11 05:57:16;;;;;;;;;10.25;10.25;;;;;6.57;63.78;-18649.91;4953232;28;11285;-71
2022/04/11 05:59:42;;;;;;;;;18.00;15.25;;;;;6.55;63.60;-18649.28;4988403;28;12161;-71
2022/04/11 06:02:12;;;;;;;;;17.50;16.50;;;;;6.60;63.17;-18650.81;4972686;28;11525;-72
2022/04/11 06:04:40;;;;;;;;;13.25;13.25;;;;;6.58;63.34;-18650.19;4968619;28;11527;-72
2022/04/11 06:07:08;;;;;;;;;14.25;14.25;;;;;6.57;63.74;-18649.75;4977942;28;11676;-71
2022/04/11 06:09:36;;;;;;;;;16.50;13.50;;;;;6.57;63.34;-18649.91;4953287;28;11646;-71
2022/04/11 06:12:03;;;;;;;;;14.25;11.00;;;;;6.57;63.83;-18649.91;4965115;28;11418;-71
2022/04/11 06:14:34;;;;;;;;;15.75;15.75;;;;;6.60;63.90;-18650.81;4991968;28;11477;-72
2022/04/11 06:17:00;;;;;;;;;15.00;15.00;;;;;6.53;63.76;-18648.69;4966429;28;11510;-72
2022/04/11 06:19:27;;;;;;;;;18.75;18.25;;;;;6.54;64.28;-18648.84;4973521;28;12302;-71
2022/04/11 06:21:53;;;;;;;;;21.25;16.25;;;;;6.65;64.46;-18652.16;4962895;28;11614;-71
2022/04/11 06:24:20;;;;;;;;;20.25;17.00;;;;;6.67;64.84;-18652.78;4967980;28;11521;-70
2022/04/11 06:26:47;;;;;;;;;14.00;14.00;;;;;6.71;64.65;-18654.13;4970306;28;11534;-72
2022/04/11 06:29:14;;;;;;;;;12.00;10.00;;;;;6.81;64.29;-18657.00;4972560;28;11498;-71
2022/04/11 06:31:42;;;;;;;;;15.75;14.25;;;;;6.97;64.10;-18661.84;4971306;28;11287;-72
2022/04/11 06:34:24;;;;;;;;;17.25;15.75;;;;;7.19;62.74;-18668.34;4972389;28;11558;-70
2022/04/11 06:36:52;;;;;;;;;17.00;15.00;;;;;7.41;62.40;-18675.00;4971473;28;11510;-70
2022/04/11 06:39:18;;;;;;;;;16.00;13.00;;;;;7.50;62.01;-18677.56;4971935;28;11641;-71
2022/04/11 06:41:50;;;;;;;;;16.25;11.00;;;;;7.45;60.90;-18676.06;4971638;28;11349;-71
2022/04/11 06:44:17;;;;;;;;;12.75;10.50;;;;;7.53;60.34;-18678.47;4971926;28;12032;-71
2022/04/11 06:47:03;;;;;;;;;19.75;13.75;;;;;7.67;60.06;-18682.69;4957541;28;11360;-72
2022/04/11 06:49:30;;;;;;;;;24.00;19.25;;;;;7.88;59.25;-18688.75;4952499;28;11598;-71
2022/04/11 06:51:58;;;;;;;;;26.00;20.00;;;;;8.01;58.34;-18692.66;4968646;28;11527;-72
2022/04/11 06:54:24;;;;;;;;;26.00;23.25;;;;;8.09;58.39;-18695.09;4985004;23;12296;-71
2022/04/11 06:56:51;;;;;;;;;21.25;20.50;;;;;8.31;57.00;-18701.72;4970688;28;12252;-71
2022/04/11 06:59:17;;;;;;;;;22.75;22.00;;;;;8.59;56.56;-18709.88;4971721;28;11568;-71
2022/04/11 07:01:44;;;;;;;;;21.00;18.00;;;;;8.77;55.63;-18715.19;4971753;28;11677;-71
2022/04/11 07:04:10;;;;;;;;;19.00;18.00;;;;;8.84;55.24;-18717.28;4971941;28;11207;-71
2022/04/11 07:06:37;;;;;;;;;27.25;23.75;;;;;8.75;55.34;-18714.72;4971722;28;11530;-71
2022/04/11 07:09:03;;;;;;;;;17.25;15.50;;;;;9.03;55.32;-18722.88;4970535;28;12245;-71
2022/04/11 07:11:32;;;;;;;;;20.50;17.25;;;;;9.40;54.45;-18733.91;4971925;28;11950;-71
2022/04/11 07:13:59;;;;;;;;;17.75;17.75;;;;;9.38;54.17;-18733.44;4970957;28;11204;-71
2022/04/11 07:16:25;;;;;;;;;23.50;20.75;;;;;9.21;53.14;-18728.31;4971546;28;11219;-71
2022/04/11 07:18:52;;;;;;;;;17.75;16.00;;;;;9.39;53.52;-18733.59;4970305;28;11304;-71
2022/04/11 07:21:18;;;;;;;;;22.75;19.25;;;;;9.35;53.66;-18732.53;4970028;28;11083;-71
2022/04/11 07:23:45;;;;;;;;;15.50;15.50;;;;;9.50;53.66;-18737.06;4971677;28;11975;-71
2022/04/11 07:26:11;;;;;;;;;12.00;11.25;;;;;9.45;53.40;-18735.41;4971645;28;11165;-71
2022/04/11 07:28:39;;;;;;;;;20.50;14.75;;;;;9.49;54.38;-18736.78;4971139;28;11045;-71
2022/04/11 07:31:06;;;;;;;;;17.25;16.25;;;;;9.57;53.39;-18739.19;4971924;28;11063;-71
2022/04/11 07:33:34;;;;;;;;;18.50;18.00;;;;;9.71;53.47;-18743.25;4970825;28;10838;-71
2022/04/11 07:36:01;;;;;;;;;11.75;11.00;;;;;9.61;52.76;-18740.25;4971806;28;11010;-71
2022/04/11 07:38:27;;;;;;;;;23.75;19.50;;;;;9.65;53.59;-18741.28;4971111;28;10707;-71
2022/04/11 07:40:53;;;;;;;;;17.75;15.75;;;;;9.66;53.28;-18741.75;4971801;28;11173;-71
2022/04/11 07:43:21;;;;;;;;;21.50;20.75;;;;;9.51;53.14;-18737.38;4971592;28;10888;-71
2022/04/11 07:45:48;;;;;;;;;15.75;15.50;;;;;9.46;53.16;-18735.88;4971652;28;11062;-71
2022/04/11 07:48:15;;;;;;;;;15.75;14.50;;;;;9.73;54.56;-18743.72;4969969;28;11050;-71
2022/04/11 07:50:42;;;;;;;;;20.00;20.00;;;;;9.91;52.53;-18749.00;4971515;28;10964;-71
2022/04/11 07:53:08;;;;;;;;;22.50;22.00;;;;;10.01;52.36;-18752.00;4969657;28;11882;-71
2022/04/11 07:55:35;;;;;;;;;15.75;15.75;;;;;10.37;52.46;-18762.88;4971144;28;11122;-71
2022/04/11 07:58:01;;;;;;;;;18.00;14.75;;;;;10.58;50.70;-18769.06;4970982;28;10885;-71
2022/04/11 08:00:28;;;;;;;;;24.75;16.75;;;;;10.74;50.57;-18773.75;4970061;28;10768;-71
2022/04/11 08:02:56;;;;;;;;;14.25;13.50;;;;;10.78;49.58;-18774.94;4971491;28;10738;-71
2022/04/11 08:05:24;;;;;;;;;13.50;12.00;;;;;10.91;49.81;-18778.72;4971143;28;10667;-71
2022/04/11 08:07:51;;;;;;;;;20.00;20.00;;;;;10.99;50.45;-18781.13;4969833;28;10423;-71
2022/04/11 08:10:19;;;;;;;;;19.00;17.50;;;;;10.98;50.09;-18780.84;4970682;28;10923;-71
2022/04/11 08:12:56;;;;;;;;;14.75;13.25;;;;;11.17;49.62;-18786.41;4971335;28;10672;-72
2022/04/11 08:15:25;;;;;;;;;17.50;14.00;;;;;11.35;48.54;-18791.84;4971200;28;10591;-71
2022/04/11 08:17:56;;;;;;;;;20.75;18.75;;;;;11.61;49.05;-18799.69;4970932;28;10613;-71
2022/04/11 08:20:23;;;;;;;;;12.25;11.00;;;;;11.96;48.18;-18809.94;4970120;28;10875;-72
2022/04/11 08:22:49;;;;;;;;;12.75;11.25;;;;;12.15;47.69;-18815.66;4971233;28;10490;-71
2022/04/11 08:25:16;;;;;;;;;12.75;12.25;;;;;12.16;47.07;-18815.81;4970052;28;10276;-72
2022/04/11 08:27:44;;;;;;;;;19.50;14.00;;;;;12.31;46.52;-18820.34;4934382;29;10443;-71
2022/04/11 08:30:12;;;;;;;;;17.75;16.00;;;;;12.33;46.33;-18820.94;4951758;28;10544;-71
2022/04/11 08:32:40;;;;;;;;;18.25;15.25;;;;;12.38;46.62;-18822.44;4950650;28;10458;-72
2022/04/11 08:35:08;;;;;;;;;12.25;11.00;;;;;12.44;46.07;-18824.25;4970034;28;10348;-71
2022/04/11 08:37:40;;;;;;;;;10.75;10.75;;;;;12.51;46.68;-18826.22;4969509;28;10416;-71
2022/04/11 08:40:12;;;;;;;;;12.00;12.00;;;;;12.62;45.35;-18829.53;4971715;28;10341;-71
2022/04/11 08:42:39;;;;;;;;;11.00;8.50;;;;;13.05;45.29;-18842.34;4974127;28;10881;-71
2022/04/11 08:45:13;;;;;;;;;10.25;10.00;;;;;13.21;44.56;-18847.03;4974830;28;10094;-71
2022/04/11 08:47:41;;;;;;;;;13.00;10.25;;;;;13.30;43.66;-18849.72;4974436;28;10065;-71
2022/04/11 08:50:10;;;;;;;;;9.50;9.50;;;;;13.45;43.29;-18854.09;4972193;28;10032;-71
2022/04/11 08:52:37;;;;;;;;;12.00;10.50;;;;;13.64;43.17;-18859.69;4973160;28;9875;-73
2022/04/11 08:55:04;;;;;;;;;9.00;6.75;;;;;13.80;42.96;-18864.50;4973045;28;10048;-72
2022/04/11 08:57:31;;;;;;;;;8.25;8.00;;;;;13.96;41.82;-18869.31;4974363;28;9974;-71
2022/04/11 09:00:09;;;;;;;;;6.75;6.75;;;;;13.97;40.96;-18869.47;4974549;28;9875;-72
2022/04/11 09:02:37;;;;;;;;;7.25;7.00;;;;;13.82;40.11;-18865.25;4972964;28;9941;-70
2022/04/11 09:05:04;;;;;;;;;8.50;8.50;;;;;14.07;39.93;-18872.47;4972501;28;9734;-70
2022/04/11 09:07:50;;;;;;;;;6.50;6.50;;;;;14.37;40.10;-18881.34;4973040;28;9863;-70
2022/04/11 09:10:19;;;;;;;;;16.50;9.00;;;;;14.29;39.95;-18879.09;4974798;28;9761;-70
2022/04/11 09:12:50;;;;;;;;;11.00;11.00;;;;;14.76;39.67;-18893.09;4974074;28;9702;-70
2022/04/11 09:15:19;;;;;;;;;11.75;11.75;;;;;14.86;38.61;-18895.81;4973057;28;9777;-70
2022/04/11 09:17:47;;;;;;;;;8.75;8.75;;;;;14.90;37.82;-18897.16;4973806;28;9946;-70
2022/04/11 09:20:18;;;;;;;;;7.00;6.00;;;;;14.98;37.79;-18899.56;4974650;28;9776;-70
2022/04/11 09:22:45;;;;;;;;;10.00;10.00;;;;;15.22;38.35;-18906.66;4972733;28;9808;-70
2022/04/11 09:25:20;;;;;;;;;12.00;10.00;;;;;14.88;39.02;-18896.41;4974653;28;9808;-70
2022/04/11 09:27:48;;;;;;;;;7.50;7.25;;;;;15.43;37.84;-18912.66;4973192;28;9539;-70
2022/04/11 09:30:27;;;;;;;;;9.00;8.50;;;;;15.42;37.94;-18912.38;4973274;28;9613;-70
2022/04/11 09:33:03;;;;;;;;;10.00;6.67;;;;;15.66;37.03;-18919.59;4972384;28;9543;-69
2022/04/11 09:35:35;;;;;;;;;12.50;8.75;;;;;15.49;37.03;-18914.63;4973824;28;9376;-71
2022/04/11 09:38:15;;;;;;;;;11.75;9.00;;;;;15.80;36.99;-18923.66;4973001;28;9646;-70
2022/04/11 09:40:53;;;;;;;;;12.75;10.00;;;;;15.65;35.89;-18919.44;4969726;28;9511;-70
2022/04/11 09:43:25;;;;;;;;;13.00;11.50;;;;;15.68;38.99;-18920.34;4974077;28;9535;-71
2022/04/11 09:45:52;;;;;;;;;10.25;10.25;;;;;15.91;36.81;-18927.09;4973499;28;9402;-70
2022/04/11 09:48:24;;;;;;;;;9.67;9.67;;;;;16.05;36.37;-18931.16;4973362;28;9649;-71
2022/04/11 09:50:52;;;;;;;;;13.75;13.00;;;;;16.19;39.02;-18935.38;4955959;28;9479;-71
2022/04/11 09:53:21;;;;;;;;;11.50;10.25;;;;;16.42;37.40;-18942.16;4972944;28;9449;-70
2022/04/11 09:55:52;;;;;;;;;17.00;15.50;;;;;15.91;37.86;-18926.97;4973816;28;9446;-70
2022/04/11 09:58:21;;;;;;;;;14.00;13.50;;;;;15.87;37.37;-18925.75;4973650;28;9485;-70
2022/04/11 10:00:49;;;;;;;;;12.00;12.00;;;;;16.25;37.44;-18937.03;4973353;28;9456;-70
2022/04/11 10:03:16;;;;;;;;;13.00;13.00;;;;;16.26;37.72;-18937.34;4972586;28;9354;-70
2022/04/11 10:05:43;;;;;;;;;15.50;15.50;;;;;16.22;34.89;-18936.28;4988340;28;9397;-70
2022/04/11 10:08:12;;;;;;;;;15.75;15.75;;;;;16.26;35.65;-18937.34;4973227;28;9461;-70
2022/04/11 10:10:41;;;;;;;;;17.00;15.00;;;;;16.11;34.17;-18932.81;4973874;28;9479;-70
2022/04/11 10:13:14;;;;;;;;;17.50;17.00;;;;;16.23;34.46;-18936.44;4972946;28;9548;-71
2022/04/11 10:15:43;;;;;;;;;16.00;15.50;;;;;16.27;34.21;-18937.63;4972898;28;9708;-70
2022/04/11 10:18:13;;;;;;;;;18.25;18.00;;;;;15.92;33.05;-18927.41;4986877;28;9582;-70
2022/04/11 10:20:42;;;;;;;;;13.50;13.00;;;;;15.78;34.07;-18923.03;4972833;28;9563;-71
2022/04/11 10:23:34;;;;;;;;;17.75;17.25;;;;;15.92;33.90;-18927.25;4971107;28;10282;-72
2022/04/11 10:26:12;;;;;;;;;14.75;13.50;;;;;15.82;34.19;-18924.41;4971577;28;9742;-71
2022/04/11 10:28:47;;;;;;;;;17.50;16.50;;;;;16.04;33.91;-18930.72;4972434;28;9625;-71
2022/04/11 10:31:15;;;;;;;;;19.25;19.25;;;;;15.47;33.74;-18914.00;4972871;28;9535;-70
2022/04/11 10:33:47;;;;;;;;;21.00;21.00;;;;;15.29;35.15;-18908.59;4972060;28;9594;-71
2022/04/11 10:36:29;;;;;;;;;16.00;15.50;;;;;15.81;34.48;-18923.94;4972638;28;9728;-70
2022/04/11 10:39:15;;;;;;;;;14.75;14.75;;;;;16.07;33.50;-18931.63;4970951;28;9726;-70
2022/04/11 10:41:54;;;;;;;;;22.00;21.25;;;;;16.24;33.38;-18936.72;4965397;28;9661;-71
2022/04/11 10:44:35;;;;;;;;;18.00;14.00;;;;;16.42;33.07;-18942.00;4971011;28;9965;-70
2022/04/11 10:47:08;;;;;;;;;18.50;17.75;;;;;16.31;33.50;-18939.00;4972292;28;9865;-70
2022/04/11 10:49:56;;;;;;;;;22.25;19.75;;;;;16.33;33.08;-18939.28;4972423;28;9684;-71
2022/04/11 10:52:32;;;;;;;;;19.25;19.00;;;;;16.65;32.91;-18948.91;4971763;28;9705;-70
2022/04/11 10:55:10;;;;;;;;;19.25;17.00;;;;;16.76;33.40;-18952.22;4973535;28;9543;-72
2022/04/11 10:57:45;;;;;;;;;20.75;19.25;;;;;16.71;32.62;-18950.56;4972634;28;9711;-72
2022/04/11 11:00:19;;;;;;;;;22.25;20.75;;;;;16.58;32.29;-18946.97;4972992;28;9793;-69
2022/04/11 11:02:52;;;;;;;;;19.75;19.75;;;;;16.24;33.15;-18936.88;4971202;28;9636;-70
2022/04/11 11:05:41;;;;;;;;;23.75;22.50;;;;;16.28;33.39;-18938.09;4971638;28;9908;-70
2022/04/11 11:08:13;;;;;;;;;24.25;24.00;;;;;16.10;32.79;-18932.66;4971038;28;9886;-71
2022/04/11 11:10:46;;;;;;;;;17.25;16.00;;;;;16.23;32.46;-18936.44;4972986;28;9936;-70
2022/04/11 11:13:34;;;;;;;;;18.50;18.25;;;;;16.38;32.76;-18940.94;4972354;28;9707;-71
2022/04/11 11:16:07;;;;;;;;;16.50;16.50;;;;;16.71;31.58;-18950.72;4971017;28;9608;-70
2022/04/11 11:18:53;;;;;;;;;21.50;21.50;;;;;16.53;31.90;-18945.44;4971880;28;9461;-71
2022/04/11 11:21:22;;;;;;;;;17.25;17.25;;;;;16.45;31.75;-18943.06;4961238;28;9723;-72
2022/04/11 11:24:04;;;;;;;;;17.25;15.75;;;;;16.66;31.81;-18949.06;4971357;28;10379;-71
2022/04/11 11:26:40;;;;;;;;;22.50;21.00;;;;;16.56;32.44;-18946.19;4971716;28;9523;-71
2022/04/11 11:29:13;;;;;;;;;16.50;15.75;;;;;16.67;32.30;-18949.53;4971994;28;10529;-70
2022/04/11 11:31:40;;;;;;;;;26.50;21.75;;;;;16.11;31.44;-18932.81;4972337;28;9629;-70
2022/04/11 11:34:12;;;;;;;;;22.50;21.00;;;;;16.15;32.02;-18934.19;4971396;28;9783;-70